createdAt,value
2023-04-25T00:02:09.948Z,99979.19
2023-04-25T00:04:40.309Z,99981.00
2023-04-25T00:07:12.493Z,99978.28
2023-04-25T00:09:41.964Z,99974.91
2023-04-25T00:12:11.496Z,99974.34
2023-04-25T00:14:40.852Z,99970.56
2023-04-25T00:17:10.267Z,99974.53
2023-04-25T00:19:39.602Z,99983.41
2023-04-25T00:22:09.085Z,99987.94
2023-04-25T00:24:41.014Z,99984.09
2023-04-25T00:27:10.567Z,99984.41
2023-04-25T00:29:39.892Z,99976.34
2023-04-25T00:32:09.257Z,99987.69
2023-04-25T00:34:38.591Z,99995.66
2023-04-25T00:37:08.019Z,99993.44
2023-04-25T00:39:37.404Z,99997.53
2023-04-25T00:42:09.584Z,99996.09
2023-04-25T00:44:39.628Z,100002.22
2023-04-25T00:47:09.559Z,100000.88
2023-04-25T00:49:38.878Z,99992.31
2023-04-25T00:52:08.671Z,99997.53
2023-04-25T00:54:38.124Z,99996.56
2023-04-25T00:57:10.099Z,99994.91
2023-04-25T00:59:41.136Z,99987.97
2023-04-25T01:02:10.812Z,99997.66
2023-04-25T01:04:40.366Z,99994.69
2023-04-25T01:07:10.092Z,99994.59
2023-04-25T01:09:39.547Z,99993.50
2023-04-25T01:12:11.733Z,99990.53
2023-04-25T01:14:41.112Z,100001.66
2023-04-25T01:17:10.947Z,100000.56
2023-04-25T01:19:40.986Z,99989.75
2023-04-25T01:22:14.313Z,100001.31
2023-04-25T01:24:44.033Z,100001.63
2023-04-25T01:27:14.051Z,100004.41
2023-04-25T01:29:43.744Z,100007.56
2023-04-25T01:32:13.751Z,100010.03
2023-04-25T01:34:43.602Z,100004.59
2023-04-25T01:37:16.052Z,100014.16
2023-04-25T01:39:45.829Z,100011.53
2023-04-25T01:42:16.721Z,100014.09
2023-04-25T01:44:46.081Z,100018.69
2023-04-25T01:47:15.435Z,100014.94
2023-04-25T01:49:44.956Z,100016.75
2023-04-25T01:52:16.896Z,100016.81
2023-04-25T01:54:46.363Z,100025.38
2023-04-25T01:57:15.990Z,100017.91
2023-04-25T01:59:46.204Z,100025.44
2023-04-25T02:02:15.904Z,100026.13
2023-04-25T02:04:45.386Z,100021.75
2023-04-25T02:07:17.394Z,100026.38
2023-04-25T02:09:46.777Z,100034.47
2023-04-25T02:12:16.145Z,100038.41
2023-04-25T02:14:45.589Z,100042.25
2023-04-25T02:17:15.650Z,100036.66
2023-04-25T02:19:45.068Z,100046.22
2023-04-25T02:22:17.200Z,100055.66
2023-04-25T02:24:46.556Z,100057.31
2023-04-25T02:27:15.918Z,100053.88
2023-04-25T02:29:45.264Z,100054.66
2023-04-25T02:32:14.584Z,100063.44
2023-04-25T02:34:43.898Z,100057.22
2023-04-25T02:37:13.238Z,100053.19
2023-04-25T02:39:45.157Z,100052.69
2023-04-25T02:42:14.503Z,100061.53
2023-04-25T02:44:43.838Z,100056.91
2023-04-25T02:47:13.245Z,100053.81
2023-04-25T02:49:42.613Z,100057.28
2023-04-25T02:52:12.180Z,100063.47
2023-04-25T02:54:41.755Z,100062.31
2023-04-25T02:57:13.722Z,100067.25
2023-04-25T02:59:43.073Z,100066.56
2023-04-25T03:02:14.209Z,100080.28
2023-04-25T03:04:43.732Z,100081.06
2023-04-25T03:07:13.578Z,100082.13
2023-04-25T03:09:42.880Z,100088.53
2023-04-25T03:12:14.962Z,100090.13
2023-04-25T03:14:44.311Z,100090.97
2023-04-25T03:17:13.649Z,100092.97
2023-04-25T03:19:43.008Z,100097.81
2023-04-25T03:22:12.325Z,100094.38
2023-04-25T03:24:41.672Z,100107.75
2023-04-25T03:27:11.144Z,100102.16
2023-04-25T03:29:43.091Z,100102.56
2023-04-25T03:32:12.525Z,100105.59
2023-04-25T03:34:41.974Z,100103.22
2023-04-25T03:37:11.284Z,100107.34
2023-04-25T03:39:40.728Z,100110.81
2023-04-25T03:42:10.048Z,100111.16
2023-04-25T03:44:39.348Z,100112.78
2023-04-25T03:47:11.394Z,100106.47
2023-04-25T03:49:40.704Z,100105.84
2023-04-25T03:52:10.079Z,100109.78
2023-04-25T03:54:39.416Z,100122.25
2023-04-25T03:57:08.726Z,100116.88
2023-04-25T03:59:38.109Z,100125.31
2023-04-25T04:02:07.652Z,100125.59
2023-04-25T04:04:40.371Z,100135.38
2023-04-25T04:07:09.990Z,100131.81
2023-04-25T04:09:39.390Z,100139.38
2023-04-25T04:12:09.423Z,100137.34
2023-04-25T04:14:38.788Z,100139.91
2023-04-25T04:17:08.185Z,100151.91
2023-04-25T04:19:40.205Z,100155.53
2023-04-25T04:22:09.505Z,100148.91
2023-04-25T04:24:38.846Z,100151.28
2023-04-25T04:27:08.180Z,100147.31
2023-04-25T04:29:37.779Z,100148.06
2023-04-25T04:32:07.285Z,100156.22
2023-04-25T04:34:36.588Z,100154.66
2023-04-25T04:37:08.580Z,100157.09
2023-04-25T04:39:38.101Z,100164.69
2023-04-25T04:42:07.612Z,100161.38
2023-04-25T04:44:37.809Z,100160.97
2023-04-25T04:47:07.489Z,100167.34
2023-04-25T04:49:37.751Z,100172.84
2023-04-25T04:52:09.712Z,100169.25
2023-04-25T04:54:39.104Z,100175.38
2023-04-25T04:57:08.400Z,100172.84
2023-04-25T04:59:37.717Z,100178.78
2023-04-25T05:02:07.485Z,100176.34
2023-04-25T05:04:36.861Z,100184.03
2023-04-25T05:07:08.810Z,100184.41
2023-04-25T05:09:38.115Z,100181.56
2023-04-25T05:12:08.249Z,100185.53
2023-04-25T05:14:37.701Z,100181.56
2023-04-25T05:17:09.673Z,100189.41
2023-04-25T05:19:39.169Z,100196.06
2023-04-25T05:22:11.064Z,100190.22
2023-04-25T05:24:42.877Z,100201.69
2023-04-25T05:27:12.204Z,100200.56
2023-04-25T05:29:41.505Z,100200.78
2023-04-25T05:32:11.388Z,100203.22
2023-04-25T05:34:41.160Z,100194.69
2023-04-25T05:37:13.281Z,100198.84
2023-04-25T05:39:42.652Z,100194.94
2023-04-25T05:42:12.275Z,100204.75
2023-04-25T05:44:41.838Z,100211.53
2023-04-25T05:47:11.233Z,100214.59
2023-04-25T05:49:43.565Z,100215.25
2023-04-25T05:52:17.351Z,100212.25
2023-04-25T05:54:46.703Z,100212.81
2023-04-25T05:57:24.968Z,100218.88
2023-04-25T05:59:54.618Z,100229.63
2023-04-25T06:02:24.854Z,100226.06
2023-04-25T06:04:54.854Z,100231.97
2023-04-25T06:07:26.874Z,100235.47
2023-04-25T06:09:57.613Z,100238.41
2023-04-25T06:12:27.140Z,100238.78
2023-04-25T06:14:59.008Z,100248.63
2023-04-25T06:17:28.676Z,100246.91
2023-04-25T06:19:58.066Z,100240.78
2023-04-25T06:22:31.822Z,100252.53
2023-04-25T06:25:01.372Z,100243.69
2023-04-25T06:27:30.862Z,100238.22
2023-04-25T06:30:00.280Z,100246.72
2023-04-25T06:32:31.100Z,100249.66
2023-04-25T06:35:00.647Z,100242.06
2023-04-25T06:37:32.563Z,100248.88
2023-04-25T06:40:04.680Z,100234.66
2023-04-25T06:42:34.045Z,100246.53
2023-04-25T06:45:03.571Z,100250.09
2023-04-25T06:47:33.530Z,100238.47
2023-04-25T06:50:02.851Z,100247.09
2023-04-25T06:52:34.926Z,100248.50
2023-04-25T06:55:05.130Z,100256.28
2023-04-25T06:57:34.446Z,100260.69
2023-04-25T07:00:06.664Z,100251.25
2023-04-25T07:02:38.742Z,100267.13
2023-04-25T07:05:10.313Z,100271.28
2023-04-25T07:07:42.196Z,100273.16
2023-04-25T07:10:12.270Z,100280.81
2023-04-25T07:12:41.580Z,100276.00
2023-04-25T07:15:12.770Z,100283.38
2023-04-25T07:17:42.248Z,100282.66
2023-04-25T07:20:13.048Z,100295.22
2023-04-25T07:22:45.095Z,100294.81
2023-04-25T07:25:14.425Z,100296.03
2023-04-25T07:27:43.798Z,100280.22
2023-04-25T07:30:13.965Z,100293.00
2023-04-25T07:32:43.425Z,100278.13
2023-04-25T07:35:13.074Z,100288.50
2023-04-25T07:37:44.983Z,100293.13
2023-04-25T07:40:16.753Z,100295.59
2023-04-25T07:42:46.225Z,100286.50
2023-04-25T07:45:15.660Z,100277.97
2023-04-25T07:47:45.012Z,100284.19
2023-04-25T07:50:14.805Z,100291.81
2023-04-25T07:52:46.723Z,100286.84
2023-04-25T07:55:16.092Z,100300.81
2023-04-25T07:57:45.419Z,100303.22
2023-04-25T08:00:16.608Z,100313.38
2023-04-25T08:02:46.109Z,100313.16
2023-04-25T08:05:17.611Z,100320.06
2023-04-25T08:07:51.213Z,100323.09
2023-04-25T08:10:20.716Z,100319.31
2023-04-25T08:12:50.026Z,100318.28
2023-04-25T08:15:19.393Z,100325.56
2023-04-25T08:17:48.736Z,100334.16
2023-04-25T08:20:18.223Z,100328.16
2023-04-25T08:22:50.131Z,100335.22
2023-04-25T08:25:19.645Z,100339.53
2023-04-25T08:27:48.975Z,100330.66
2023-04-25T08:30:18.491Z,100333.66
2023-04-25T08:32:47.867Z,100348.66
2023-04-25T08:35:18.547Z,100330.47
2023-04-25T08:37:50.610Z,100346.66
2023-04-25T08:40:19.987Z,100352.16
2023-04-25T08:42:51.119Z,100348.69
2023-04-25T08:45:20.853Z,100356.75
2023-04-25T08:47:55.205Z,100357.00
2023-04-25T08:50:27.756Z,100358.13
2023-04-25T08:53:05.951Z,100356.28
2023-04-25T08:55:35.871Z,100350.75
2023-04-25T08:58:05.442Z,100359.50
2023-04-25T09:00:34.855Z,100360.91
2023-04-25T09:03:05.293Z,100372.88
2023-04-25T09:05:36.645Z,100374.78
2023-04-25T09:08:09.738Z,100364.31
2023-04-25T09:10:39.520Z,100365.88
2023-04-25T09:13:10.076Z,100361.69
2023-04-25T09:15:52.525Z,100384.16
2023-04-25T09:18:30.941Z,100392.28
2023-04-25T09:21:13.739Z,100392.53
2023-04-25T09:23:49.564Z,100402.13
2023-04-25T09:26:20.984Z,100390.19
2023-04-25T09:28:51.562Z,100399.47
2023-04-25T09:31:26.301Z,100397.56
2023-04-25T09:34:03.610Z,100412.22
2023-04-25T09:36:34.049Z,100410.03
2023-04-25T09:39:07.922Z,100412.13
2023-04-25T09:41:42.217Z,100414.59
2023-04-25T09:44:11.657Z,100411.97
2023-04-25T09:46:42.470Z,100420.94
2023-04-25T09:49:12.078Z,100428.63
2023-04-25T09:51:41.448Z,100426.69
2023-04-25T09:54:13.387Z,100447.25
2023-04-25T09:56:43.241Z,100450.03
2023-04-25T10:25:32.153Z,100469.81
2023-04-25T10:28:03.497Z,100479.31
2023-04-25T10:30:33.100Z,100487.72
2023-04-25T10:33:03.320Z,100499.50
2023-04-25T10:35:35.115Z,100489.41
2023-04-25T10:38:07.624Z,100490.91
2023-04-25T10:40:40.061Z,100470.19
2023-04-25T10:43:40.962Z,100487.69
2023-04-25T10:46:21.259Z,100480.00
2023-04-25T10:48:52.072Z,100471.50
2023-04-25T10:51:23.801Z,100470.38
2023-04-25T10:54:04.490Z,100473.50
2023-04-25T11:39:07.619Z,100509.59
2023-04-25T11:41:37.215Z,100520.69
2023-04-25T11:44:07.479Z,100530.69
2023-04-25T11:46:38.286Z,100526.06
2023-04-25T11:49:07.856Z,100518.06
2023-04-25T11:51:45.062Z,100519.19
2023-04-25T11:54:15.481Z,100517.19
2023-04-25T11:56:45.831Z,100515.97
2023-04-25T11:59:15.907Z,100515.06
2023-04-25T12:01:52.408Z,100524.09
2023-04-25T12:04:24.098Z,100525.22
2023-04-25T12:06:57.534Z,100530.28
2023-04-25T12:09:32.393Z,100528.63
2023-04-25T12:12:04.504Z,100528.16
2023-04-25T12:14:35.872Z,100536.94
2023-04-25T12:17:09.557Z,100545.19
2023-04-25T12:19:41.467Z,100532.53
2023-04-25T12:22:27.131Z,100531.31
2023-04-25T12:24:59.487Z,100529.06
2023-04-25T12:27:30.511Z,100531.09
2023-04-25T12:30:00.869Z,100526.13
2023-04-25T12:32:30.296Z,100525.78
2023-04-25T12:35:00.054Z,100517.72
2023-04-25T12:37:32.610Z,100523.03
2023-04-25T12:40:03.884Z,100523.06
2023-04-25T12:42:33.378Z,100514.69
2023-04-25T12:45:03.399Z,100535.16
2023-04-25T12:47:33.699Z,100526.94
2023-04-25T12:50:03.155Z,100535.16
2023-04-25T12:52:35.144Z,100551.13
2023-04-25T12:55:04.486Z,100537.59
2023-04-25T12:57:33.893Z,100555.09
2023-04-25T13:00:05.008Z,100554.69
2023-04-25T13:02:34.872Z,100554.03
2023-04-25T13:05:04.792Z,100559.41
2023-04-25T13:07:36.900Z,100554.94
2023-04-25T13:10:06.869Z,100546.94
2023-04-25T13:12:36.359Z,100540.69
2023-04-25T13:15:06.242Z,100548.19
2023-04-25T13:17:35.805Z,100544.66
2023-04-25T13:20:06.016Z,100568.38
2023-04-25T13:22:38.134Z,100581.34
2023-04-25T13:25:08.644Z,100577.00
2023-04-25T13:27:40.355Z,100588.78
2023-04-25T13:30:13.929Z,100578.63
2023-04-25T13:32:43.959Z,100582.28
2023-04-25T13:35:16.488Z,100590.78
2023-04-25T13:37:48.515Z,100593.53
2023-04-25T13:40:18.393Z,100594.34
2023-04-25T13:42:47.883Z,100588.81
2023-04-25T13:45:17.757Z,100586.28
2023-04-25T13:47:47.264Z,100578.72
2023-04-25T13:50:17.164Z,100591.72
2023-04-25T13:52:49.310Z,100578.66
2023-04-25T13:55:18.780Z,100575.13
2023-04-25T13:57:48.451Z,100587.84
2023-04-25T14:00:20.009Z,100581.97
2023-04-25T14:02:50.745Z,100571.22
2023-04-25T14:05:20.494Z,100580.75
2023-04-25T14:07:52.524Z,100578.81
2023-04-25T14:10:21.854Z,100584.84
2023-04-25T14:12:51.186Z,100574.38
2023-04-25T14:15:21.263Z,100575.09
2023-04-25T14:17:50.644Z,100577.66
2023-04-25T14:20:21.403Z,100581.81
2023-04-25T14:22:55.562Z,100585.81
2023-04-25T14:25:25.292Z,100611.69
2023-04-25T14:27:54.944Z,100597.44
2023-04-25T14:30:25.509Z,100619.50
2023-04-25T14:32:54.958Z,100620.69
2023-04-25T14:35:24.366Z,100626.28
2023-04-25T14:37:56.800Z,100611.16
2023-04-25T14:40:26.375Z,100619.41
2023-04-25T14:42:55.699Z,100612.97
2023-04-25T14:45:25.069Z,100614.19
2023-04-25T14:47:54.576Z,100613.81
2023-04-25T14:50:24.140Z,100608.09
2023-04-25T14:52:59.806Z,100612.66
2023-04-25T14:55:29.289Z,100611.56
2023-04-25T14:57:58.897Z,100603.78
2023-04-25T15:00:28.995Z,100603.63
2023-04-25T15:02:59.333Z,100610.56
2023-04-25T15:05:28.824Z,100611.22
2023-04-25T15:08:01.504Z,100618.25
2023-04-25T15:10:32.012Z,100620.19
2023-04-25T15:13:03.744Z,100616.03
2023-04-25T15:15:33.435Z,100632.06
2023-04-25T15:18:03.668Z,100637.63
2023-04-25T15:20:33.144Z,100632.97
2023-04-25T15:23:06.085Z,100642.09
2023-04-25T15:25:35.478Z,100626.53
2023-04-25T15:28:05.097Z,100635.25
2023-04-25T15:30:34.466Z,100644.78
2023-04-25T15:33:03.901Z,100631.00
2023-04-25T15:35:33.701Z,100631.66
2023-04-25T15:38:05.730Z,100644.88
2023-04-25T15:40:35.364Z,100652.41
2023-04-25T15:43:04.750Z,100652.41
2023-04-25T15:45:34.370Z,100645.72
2023-04-25T15:48:03.749Z,100651.38
2023-04-25T15:50:33.404Z,100649.91
2023-04-25T15:53:07.317Z,100653.69
2023-04-25T15:55:41.183Z,100664.41
2023-04-25T15:58:12.797Z,100656.91
2023-04-25T16:00:43.536Z,100663.09
2023-04-25T16:03:13.065Z,100654.63
2023-04-25T16:05:42.722Z,100656.84
2023-04-25T16:08:14.689Z,100654.91
2023-04-25T16:10:44.230Z,100658.19
2023-04-25T16:13:13.988Z,100663.16
2023-04-25T16:15:43.380Z,100657.41
2023-04-25T16:18:12.982Z,100659.44
2023-04-25T16:20:42.466Z,100658.78
2023-04-25T16:23:14.488Z,100664.38
2023-04-25T16:25:44.538Z,100667.41
2023-04-25T16:28:13.914Z,100667.88
2023-04-25T16:30:43.272Z,100666.88
2023-04-25T16:33:12.679Z,100677.59
2023-04-25T16:35:43.057Z,100679.50
2023-04-25T16:38:14.972Z,100681.59
2023-04-25T16:40:44.501Z,100697.69
2023-04-25T16:43:13.846Z,100715.81
2023-04-25T16:45:43.162Z,100722.72
2023-04-25T16:48:12.805Z,100707.38
2023-04-25T16:50:42.198Z,100715.63
2023-04-25T16:53:11.575Z,100716.31
2023-04-25T16:55:43.553Z,100713.63
2023-04-25T16:58:14.482Z,100709.44
2023-04-25T17:00:44.888Z,100705.38
2023-04-25T17:03:14.327Z,100719.97
2023-04-25T17:05:43.738Z,100710.78
2023-04-25T17:08:13.141Z,100720.00
2023-04-25T17:10:45.115Z,100728.66
2023-04-25T17:13:14.479Z,100715.94
2023-04-25T17:15:43.810Z,100725.44
2023-04-25T17:18:13.247Z,100723.22
2023-04-25T17:20:42.979Z,100717.19
2023-04-25T17:23:12.835Z,100732.53
2023-04-25T17:25:44.760Z,100737.28
2023-04-25T17:28:14.220Z,100739.78
2023-04-25T17:30:43.755Z,100724.41
2023-04-25T17:33:13.130Z,100732.06
2023-04-25T17:35:42.565Z,100740.50
2023-04-25T17:38:12.043Z,100734.63
2023-04-25T17:40:41.383Z,100736.63
2023-04-25T17:43:13.356Z,100749.66
2023-04-25T17:45:42.787Z,100752.34
2023-04-25T17:48:12.804Z,100745.75
2023-04-25T17:50:42.276Z,100747.53
2023-04-25T17:53:11.695Z,100747.06
2023-04-25T17:55:43.670Z,100747.06
2023-04-25T17:58:15.674Z,100744.00
2023-04-25T18:00:45.627Z,100753.47
2023-04-25T18:03:15.105Z,100761.94
2023-04-25T18:05:44.846Z,100758.44
2023-04-25T18:08:14.205Z,100763.47
2023-04-25T18:10:43.608Z,100769.88
2023-04-25T18:13:15.841Z,100768.53
2023-04-25T18:15:45.209Z,100782.94
2023-04-25T18:18:20.505Z,100779.34
2023-04-25T18:20:50.001Z,100788.31
2023-04-25T18:23:19.496Z,100785.63
2023-04-25T18:25:53.355Z,100780.75
2023-04-25T18:28:25.512Z,100793.44
2023-04-25T18:30:55.025Z,100798.13
2023-04-25T18:33:25.361Z,100796.72
2023-04-25T18:35:59.135Z,100801.84
2023-04-25T18:41:18.363Z,100803.25
2023-04-25T18:43:58.891Z,100813.75
2023-04-25T18:46:28.505Z,100821.81
2023-04-25T18:48:58.119Z,100832.91
2023-04-25T18:51:29.456Z,100833.03
2023-04-25T18:53:59.137Z,100832.19
2023-04-25T18:56:29.631Z,100829.25
2023-04-25T18:59:01.615Z,100843.50
2023-04-25T19:01:31.184Z,100838.25
2023-04-25T19:04:03.629Z,100840.47
2023-04-25T19:06:35.408Z,100840.47
2023-04-25T19:09:05.101Z,100840.81
2023-04-25T19:11:34.592Z,100833.59
2023-04-25T19:14:06.788Z,100849.72
2023-04-25T19:16:39.225Z,100842.59
2023-04-25T19:19:09.665Z,100847.13
2023-04-25T19:21:39.303Z,100852.97
2023-04-25T19:24:09.359Z,100850.41
2023-04-25T19:26:42.497Z,100856.69
2023-04-25T19:29:16.211Z,100860.19
2023-04-25T19:31:47.061Z,100862.84
2023-04-25T19:34:17.160Z,100858.91
2023-04-25T19:36:46.678Z,100856.78
2023-04-25T19:39:16.030Z,100859.84
2023-04-25T19:41:45.470Z,100864.16
2023-04-25T19:44:17.396Z,100874.44
2023-04-25T19:46:47.044Z,100887.53
2023-04-25T19:49:16.442Z,100871.28
2023-04-25T19:51:46.406Z,100871.69
2023-04-25T19:54:15.756Z,100874.53
2023-04-25T19:56:45.938Z,100872.09
2023-04-25T19:59:17.858Z,100865.88
2023-04-25T20:01:47.174Z,100862.66
2023-04-25T20:04:18.437Z,100863.22
2023-04-25T20:06:47.833Z,100871.84
2023-04-25T20:09:17.136Z,100867.47
2023-04-25T20:11:46.592Z,100867.81
2023-04-25T20:14:18.493Z,100874.94
2023-04-25T20:16:48.013Z,100881.72
2023-04-25T20:19:17.378Z,100873.81
2023-04-25T20:21:46.769Z,100870.69
2023-04-25T20:24:16.146Z,100870.00
2023-04-25T20:26:45.465Z,100868.63
2023-04-25T20:29:15.117Z,100881.31
2023-04-25T20:31:49.941Z,100878.28
2023-04-25T20:34:21.661Z,100882.41
2023-04-25T20:36:51.617Z,100882.19
2023-04-25T20:39:22.153Z,100874.44
2023-04-25T20:41:51.592Z,100878.53
2023-04-25T20:44:23.523Z,100881.00
2023-04-25T20:46:56.504Z,100880.41
2023-04-25T20:49:25.930Z,100882.25
2023-04-25T20:51:55.299Z,100883.97
2023-04-25T20:54:27.116Z,100888.06
2023-04-25T20:56:56.539Z,100883.16
2023-04-25T20:59:26.120Z,100881.03
2023-04-25T21:01:59.100Z,100888.66
2023-04-25T21:04:28.878Z,100887.19
2023-04-25T21:06:58.371Z,100876.94
2023-04-25T21:09:27.824Z,100878.63
2023-04-25T21:11:57.292Z,100880.31
2023-04-25T21:14:26.670Z,100893.59
2023-04-25T21:16:58.815Z,100891.50
2023-04-25T21:19:28.187Z,100884.56
2023-04-25T21:21:57.603Z,100899.38
2023-04-25T21:24:27.450Z,100896.13
2023-04-25T21:26:56.859Z,100895.44
2023-04-25T21:29:26.294Z,100898.59
2023-04-25T21:31:58.405Z,100902.22
2023-04-25T21:34:28.597Z,100900.84
2023-04-25T21:36:58.437Z,100895.88
2023-04-25T21:39:27.852Z,100904.72
2023-04-25T21:41:57.930Z,100907.31
2023-04-25T21:44:30.260Z,100899.97
2023-04-25T21:47:02.410Z,100907.94
2023-04-25T21:49:33.010Z,100915.38
2023-04-25T21:52:03.174Z,100914.94
2023-04-25T21:54:32.620Z,100906.03
2023-04-25T21:57:04.411Z,100907.84
2023-04-25T21:59:36.105Z,100901.97
2023-04-25T22:02:08.271Z,100908.97
2023-04-25T22:04:37.910Z,100903.91
2023-04-25T22:07:07.317Z,100904.13
2023-04-25T22:09:47.428Z,100905.84
2023-04-25T22:12:23.724Z,100902.56
2023-04-25T22:14:53.236Z,100901.28
2023-04-25T22:17:28.056Z,100906.84
2023-04-25T22:19:57.411Z,100901.97
2023-04-25T22:22:26.909Z,100915.97
2023-04-25T22:24:56.492Z,100908.19
2023-04-25T22:27:25.795Z,100907.91
2023-04-25T22:29:55.344Z,100912.34
2023-04-25T22:32:28.748Z,100924.41
2023-04-25T22:34:58.113Z,100922.72
2023-04-25T22:37:27.829Z,100922.75
2023-04-25T22:39:58.002Z,100924.53
2023-04-25T22:42:27.337Z,100926.41
2023-04-25T22:44:57.126Z,100927.25
2023-04-25T22:47:30.001Z,100921.47
2023-04-25T22:50:03.818Z,100928.41
2023-04-25T22:52:33.142Z,100931.38
2023-04-25T22:55:05.190Z,100937.13
2023-04-25T22:57:34.536Z,100934.44
2023-04-25T23:00:14.737Z,100928.25
2023-04-25T23:02:47.433Z,100938.13
2023-04-25T23:05:17.624Z,100947.56
2023-04-25T23:07:47.484Z,100932.63
2023-04-25T23:10:17.418Z,100939.88
2023-04-25T23:12:46.758Z,100938.16
2023-04-25T23:15:16.511Z,100941.81
2023-04-25T23:17:48.427Z,100942.81
2023-04-25T23:20:18.135Z,100935.59
2023-04-25T23:22:47.449Z,100944.22
2023-04-25T23:25:16.789Z,100937.44
2023-04-25T23:27:47.608Z,100949.66
2023-04-25T23:30:17.916Z,100952.75
2023-04-25T23:32:49.831Z,100949.69
2023-04-25T23:35:19.181Z,100945.63
2023-04-25T23:37:49.164Z,100941.75
2023-04-25T23:40:18.789Z,100938.03
2023-04-25T23:42:48.477Z,100938.00
2023-04-25T23:45:17.798Z,100943.94
2023-04-25T23:47:49.748Z,100945.84
2023-04-25T23:50:19.144Z,100938.00
2023-04-25T23:52:48.474Z,100945.00
2023-04-25T23:55:17.957Z,100953.25
2023-04-25T23:57:47.760Z,100960.34
